sensor_id;sensor_type;location;lat;lon;timestamp;P1;durP1;ratioP1;P2;durP2;ratioP2
52494;SDS011;38405;53.212;5.660;2024-01-07T00:00:01;17.48;;;9.20;;
52494;SDS011;38405;53.212;5.660;2024-01-07T00:02:28;9.63;;;7.57;;
52494;SDS011;38405;53.212;5.660;2024-01-07T00:04:55;15.48;;;9.18;;
52494;SDS011;38405;53.212;5.660;2024-01-07T00:07:21;14.05;;;9.20;;
52494;SDS011;38405;53.212;5.660;2024-01-07T00:09:47;12.15;;;8.40;;
52494;SDS011;38405;53.212;5.660;2024-01-07T00:12:13;14.60;;;8.95;;
52494;SDS011;38405;53.212;5.660;2024-01-07T00:14:38;13.35;;;8.35;;
52494;SDS011;38405;53.212;5.660;2024-01-07T00:17:04;13.55;;;8.70;;
52494;SDS011;38405;53.212;5.660;2024-01-07T00:19:30;11.65;;;7.82;;
52494;SDS011;38405;53.212;5.660;2024-01-07T00:21:56;13.10;;;8.98;;
52494;SDS011;38405;53.212;5.660;2024-01-07T00:24:22;14.98;;;8.13;;
52494;SDS011;38405;53.212;5.660;2024-01-07T00:26:51;13.93;;;8.00;;
52494;SDS011;38405;53.212;5.660;2024-01-07T00:29:16;10.15;;;6.70;;
52494;SDS011;38405;53.212;5.660;2024-01-07T00:31:42;11.60;;;7.18;;
52494;SDS011;38405;53.212;5.660;2024-01-07T00:34:07;10.23;;;7.63;;
52494;SDS011;38405;53.212;5.660;2024-01-07T00:36:33;14.32;;;8.57;;
52494;SDS011;38405;53.212;5.660;2024-01-07T00:38:59;11.40;;;7.53;;
52494;SDS011;38405;53.212;5.660;2024-01-07T00:41:24;12.65;;;8.43;;
52494;SDS011;38405;53.212;5.660;2024-01-07T00:43:50;10.65;;;8.32;;
52494;SDS011;38405;53.212;5.660;2024-01-07T00:46:18;13.57;;;8.68;;
52494;SDS011;38405;53.212;5.660;2024-01-07T00:48:43;13.20;;;8.15;;
52494;SDS011;38405;53.212;5.660;2024-01-07T00:51:09;11.25;;;8.93;;
52494;SDS011;38405;53.212;5.660;2024-01-07T00:53:35;11.10;;;7.65;;
52494;SDS011;38405;53.212;5.660;2024-01-07T00:56:00;15.23;;;8.40;;
52494;SDS011;38405;53.212;5.660;2024-01-07T00:58:26;12.02;;;7.97;;
52494;SDS011;38405;53.212;5.660;2024-01-07T01:00:51;10.75;;;7.55;;
52494;SDS011;38405;53.212;5.660;2024-01-07T01:03:19;12.05;;;8.68;;
52494;SDS011;38405;53.212;5.660;2024-01-07T01:05:45;9.98;;;7.40;;
52494;SDS011;38405;53.212;5.660;2024-01-07T01:08:10;11.50;;;7.95;;
52494;SDS011;38405;53.212;5.660;2024-01-07T01:10:36;13.10;;;8.95;;
52494;SDS011;38405;53.212;5.660;2024-01-07T01:13:02;12.30;;;8.40;;
52494;SDS011;38405;53.212;5.660;2024-01-07T01:15:27;13.27;;;6.60;;
52494;SDS011;38405;53.212;5.660;2024-01-07T01:17:53;9.60;;;6.72;;
52494;SDS011;38405;53.212;5.660;2024-01-07T01:20:19;11.80;;;7.75;;
52494;SDS011;38405;53.212;5.660;2024-01-07T01:22:44;14.57;;;7.70;;
52494;SDS011;38405;53.212;5.660;2024-01-07T01:25:10;11.50;;;6.68;;
52494;SDS011;38405;53.212;5.660;2024-01-07T01:27:36;7.72;;;5.45;;
52494;SDS011;38405;53.212;5.660;2024-01-07T01:30:02;8.73;;;5.90;;
52494;SDS011;38405;53.212;5.660;2024-01-07T01:32:28;11.48;;;5.97;;
52494;SDS011;38405;53.212;5.660;2024-01-07T01:34:53;12.80;;;6.68;;
52494;SDS011;38405;53.212;5.660;2024-01-07T01:37:19;11.75;;;7.55;;
52494;SDS011;38405;53.212;5.660;2024-01-07T01:39:45;12.40;;;8.18;;
52494;SDS011;38405;53.212;5.660;2024-01-07T01:42:10;14.90;;;7.25;;
52494;SDS011;38405;53.212;5.660;2024-01-07T01:44:36;16.15;;;7.85;;
52494;SDS011;38405;53.212;5.660;2024-01-07T01:47:02;9.30;;;6.70;;
52494;SDS011;38405;53.212;5.660;2024-01-07T01:49:27;18.40;;;8.05;;
52494;SDS011;38405;53.212;5.660;2024-01-07T01:51:53;13.07;;;8.35;;
52494;SDS011;38405;53.212;5.660;2024-01-07T01:54:20;11.35;;;6.05;;
52494;SDS011;38405;53.212;5.660;2024-01-07T01:56:47;13.20;;;8.40;;
52494;SDS011;38405;53.212;5.660;2024-01-07T01:59:14;15.15;;;7.68;;
52494;SDS011;38405;53.212;5.660;2024-01-07T02:01:40;11.73;;;7.80;;
52494;SDS011;38405;53.212;5.660;2024-01-07T02:04:06;13.10;;;7.65;;
52494;SDS011;38405;53.212;5.660;2024-01-07T02:06:33;11.55;;;7.43;;
52494;SDS011;38405;53.212;5.660;2024-01-07T02:08:58;10.57;;;6.32;;
52494;SDS011;38405;53.212;5.660;2024-01-07T02:11:24;12.77;;;7.70;;
52494;SDS011;38405;53.212;5.660;2024-01-07T02:13:50;17.17;;;8.57;;
52494;SDS011;38405;53.212;5.660;2024-01-07T02:16:15;10.70;;;7.20;;
52494;SDS011;38405;53.212;5.660;2024-01-07T02:18:42;11.68;;;6.82;;
52494;SDS011;38405;53.212;5.660;2024-01-07T02:21:09;8.65;;;6.53;;
52494;SDS011;38405;53.212;5.660;2024-01-07T02:23:35;11.50;;;7.03;;
52494;SDS011;38405;53.212;5.660;2024-01-07T02:26:01;9.82;;;7.00;;
52494;SDS011;38405;53.212;5.660;2024-01-07T02:28:26;12.77;;;6.78;;
52494;SDS011;38405;53.212;5.660;2024-01-07T02:30:52;11.48;;;7.45;;
52494;SDS011;38405;53.212;5.660;2024-01-07T02:33:17;12.07;;;7.40;;
52494;SDS011;38405;53.212;5.660;2024-01-07T02:35:43;9.15;;;5.85;;
52494;SDS011;38405;53.212;5.660;2024-01-07T02:38:09;10.23;;;6.75;;
52494;SDS011;38405;53.212;5.660;2024-01-07T02:40:34;14.77;;;6.45;;
52494;SDS011;38405;53.212;5.660;2024-01-07T02:43:00;13.52;;;6.70;;
52494;SDS011;38405;53.212;5.660;2024-01-07T02:45:25;10.30;;;6.60;;
52494;SDS011;38405;53.212;5.660;2024-01-07T02:47:51;10.07;;;6.65;;
52494;SDS011;38405;53.212;5.660;2024-01-07T02:50:17;13.65;;;6.40;;
52494;SDS011;38405;53.212;5.660;2024-01-07T02:52:43;10.35;;;6.30;;
52494;SDS011;38405;53.212;5.660;2024-01-07T02:55:08;10.73;;;7.07;;
52494;SDS011;38405;53.212;5.660;2024-01-07T02:57:34;13.73;;;7.18;;
52494;SDS011;38405;53.212;5.660;2024-01-07T03:00:00;11.52;;;7.03;;
52494;SDS011;38405;53.212;5.660;2024-01-07T03:02:25;12.10;;;7.30;;
52494;SDS011;38405;53.212;5.660;2024-01-07T03:04:51;11.73;;;7.30;;
52494;SDS011;38405;53.212;5.660;2024-01-07T03:07:17;10.05;;;6.18;;
52494;SDS011;38405;53.212;5.660;2024-01-07T03:09:42;10.80;;;7.35;;
52494;SDS011;38405;53.212;5.660;2024-01-07T03:12:08;10.32;;;5.47;;
52494;SDS011;38405;53.212;5.660;2024-01-07T03:14:34;11.30;;;6.13;;
52494;SDS011;38405;53.212;5.660;2024-01-07T03:16:59;10.23;;;6.00;;
52494;SDS011;38405;53.212;5.660;2024-01-07T03:19:25;10.73;;;5.53;;
52494;SDS011;38405;53.212;5.660;2024-01-07T03:21:50;10.27;;;6.20;;
52494;SDS011;38405;53.212;5.660;2024-01-07T03:24:16;9.32;;;6.20;;
52494;SDS011;38405;53.212;5.660;2024-01-07T03:26:42;9.60;;;5.13;;
52494;SDS011;38405;53.212;5.660;2024-01-07T03:29:07;10.80;;;6.35;;
52494;SDS011;38405;53.212;5.660;2024-01-07T03:31:33;9.55;;;5.93;;
52494;SDS011;38405;53.212;5.660;2024-01-07T03:33:59;11.95;;;5.78;;
52494;SDS011;38405;53.212;5.660;2024-01-07T03:36:24;8.02;;;4.85;;
52494;SDS011;38405;53.212;5.660;2024-01-07T03:38:50;12.02;;;5.28;;
52494;SDS011;38405;53.212;5.660;2024-01-07T03:41:19;6.03;;;4.55;;
52494;SDS011;38405;53.212;5.660;2024-01-07T03:43:46;10.02;;;4.82;;
52494;SDS011;38405;53.212;5.660;2024-01-07T03:46:12;8.48;;;5.68;;
52494;SDS011;38405;53.212;5.660;2024-01-07T03:48:38;10.80;;;4.38;;
52494;SDS011;38405;53.212;5.660;2024-01-07T03:51:04;6.95;;;4.80;;
52494;SDS011;38405;53.212;5.660;2024-01-07T03:53:29;6.78;;;4.35;;
52494;SDS011;38405;53.212;5.660;2024-01-07T03:55:55;5.93;;;4.40;;
52494;SDS011;38405;53.212;5.660;2024-01-07T03:58:21;8.35;;;4.28;;
52494;SDS011;38405;53.212;5.660;2024-01-07T04:00:46;5.55;;;4.10;;
52494;SDS011;38405;53.212;5.660;2024-01-07T04:03:12;5.43;;;3.42;;
52494;SDS011;38405;53.212;5.660;2024-01-07T04:05:38;5.50;;;3.97;;
52494;SDS011;38405;53.212;5.660;2024-01-07T04:08:03;7.13;;;4.15;;
52494;SDS011;38405;53.212;5.660;2024-01-07T04:10:29;8.10;;;3.90;;
52494;SDS011;38405;53.212;5.660;2024-01-07T04:12:54;6.72;;;4.22;;
52494;SDS011;38405;53.212;5.660;2024-01-07T04:15:20;9.18;;;3.97;;
52494;SDS011;38405;53.212;5.660;2024-01-07T04:17:46;7.88;;;4.00;;
52494;SDS011;38405;53.212;5.660;2024-01-07T04:20:15;10.68;;;3.72;;
52494;SDS011;38405;53.212;5.660;2024-01-07T04:22:40;8.30;;;3.95;;
52494;SDS011;38405;53.212;5.660;2024-01-07T04:25:06;9.82;;;4.30;;
52494;SDS011;38405;53.212;5.660;2024-01-07T04:27:36;5.97;;;3.58;;
52494;SDS011;38405;53.212;5.660;2024-01-07T04:30:02;6.13;;;3.70;;
52494;SDS011;38405;53.212;5.660;2024-01-07T04:32:28;10.20;;;3.40;;
52494;SDS011;38405;53.212;5.660;2024-01-07T04:34:54;5.55;;;3.28;;
52494;SDS011;38405;53.212;5.660;2024-01-07T04:37:21;7.72;;;3.50;;
52494;SDS011;38405;53.212;5.660;2024-01-07T04:39:46;5.88;;;3.55;;
52494;SDS011;38405;53.212;5.660;2024-01-07T04:42:12;5.85;;;3.70;;
52494;SDS011;38405;53.212;5.660;2024-01-07T04:44:38;4.82;;;3.65;;
52494;SDS011;38405;53.212;5.660;2024-01-07T04:47:04;4.70;;;3.40;;
52494;SDS011;38405;53.212;5.660;2024-01-07T04:49:29;3.75;;;3.22;;
52494;SDS011;38405;53.212;5.660;2024-01-07T04:51:55;3.45;;;2.78;;
52494;SDS011;38405;53.212;5.660;2024-01-07T04:54:20;4.72;;;3.03;;
52494;SDS011;38405;53.212;5.660;2024-01-07T04:56:46;4.60;;;2.95;;
52494;SDS011;38405;53.212;5.660;2024-01-07T04:59:12;7.50;;;3.13;;
52494;SDS011;38405;53.212;5.660;2024-01-07T05:01:37;7.85;;;2.80;;
52494;SDS011;38405;53.212;5.660;2024-01-07T05:04:03;5.22;;;2.63;;
52494;SDS011;38405;53.212;5.660;2024-01-07T05:06:29;6.22;;;3.08;;
52494;SDS011;38405;53.212;5.660;2024-01-07T05:08:54;5.25;;;2.92;;
52494;SDS011;38405;53.212;5.660;2024-01-07T05:11:20;5.22;;;3.03;;
52494;SDS011;38405;53.212;5.660;2024-01-07T05:13:46;4.28;;;3.00;;
52494;SDS011;38405;53.212;5.660;2024-01-07T05:16:21;4.55;;;3.38;;
52494;SDS011;38405;53.212;5.660;2024-01-07T05:18:46;6.43;;;2.90;;
52494;SDS011;38405;53.212;5.660;2024-01-07T05:21:18;4.72;;;2.70;;
52494;SDS011;38405;53.212;5.660;2024-01-07T05:23:44;5.10;;;3.00;;
52494;SDS011;38405;53.212;5.660;2024-01-07T05:26:09;7.50;;;3.50;;
52494;SDS011;38405;53.212;5.660;2024-01-07T05:28:36;6.57;;;2.60;;
52494;SDS011;38405;53.212;5.660;2024-01-07T05:31:02;3.88;;;2.55;;
52494;SDS011;38405;53.212;5.660;2024-01-07T05:33:28;3.45;;;2.40;;
52494;SDS011;38405;53.212;5.660;2024-01-07T05:35:53;5.90;;;2.35;;
52494;SDS011;38405;53.212;5.660;2024-01-07T05:38:19;5.65;;;2.90;;
52494;SDS011;38405;53.212;5.660;2024-01-07T05:40:44;3.47;;;2.42;;
52494;SDS011;38405;53.212;5.660;2024-01-07T05:43:10;3.97;;;2.58;;
52494;SDS011;38405;53.212;5.660;2024-01-07T05:45:35;6.65;;;2.65;;
52494;SDS011;38405;53.212;5.660;2024-01-07T05:48:01;4.85;;;2.60;;
52494;SDS011;38405;53.212;5.660;2024-01-07T05:50:27;3.80;;;2.47;;
52494;SDS011;38405;53.212;5.660;2024-01-07T05:52:52;5.15;;;2.40;;
52494;SDS011;38405;53.212;5.660;2024-01-07T05:55:18;2.83;;;2.30;;
52494;SDS011;38405;53.212;5.660;2024-01-07T05:57:44;4.00;;;2.38;;
52494;SDS011;38405;53.212;5.660;2024-01-07T06:00:10;5.32;;;2.40;;
52494;SDS011;38405;53.212;5.660;2024-01-07T06:02:37;3.92;;;2.85;;
52494;SDS011;38405;53.212;5.660;2024-01-07T06:05:03;4.60;;;2.72;;
52494;SDS011;38405;53.212;5.660;2024-01-07T06:07:29;5.00;;;2.40;;
52494;SDS011;38405;53.212;5.660;2024-01-07T06:09:55;2.95;;;2.13;;
52494;SDS011;38405;53.212;5.660;2024-01-07T06:12:21;4.70;;;2.47;;
52494;SDS011;38405;53.212;5.660;2024-01-07T06:14:46;5.80;;;2.65;;
52494;SDS011;38405;53.212;5.660;2024-01-07T06:17:12;5.90;;;3.13;;
52494;SDS011;38405;53.212;5.660;2024-01-07T06:19:37;3.92;;;2.30;;
52494;SDS011;38405;53.212;5.660;2024-01-07T06:22:03;2.85;;;2.15;;
52494;SDS011;38405;53.212;5.660;2024-01-07T06:24:29;5.90;;;2.85;;
52494;SDS011;38405;53.212;5.660;2024-01-07T06:26:54;3.92;;;2.17;;
52494;SDS011;38405;53.212;5.660;2024-01-07T06:29:20;2.55;;;2.15;;
52494;SDS011;38405;53.212;5.660;2024-01-07T06:31:45;4.47;;;2.40;;
52494;SDS011;38405;53.212;5.660;2024-01-07T06:34:11;2.75;;;2.25;;
52494;SDS011;38405;53.212;5.660;2024-01-07T06:36:40;5.13;;;2.53;;
52494;SDS011;38405;53.212;5.660;2024-01-07T06:39:08;3.75;;;2.05;;
52494;SDS011;38405;53.212;5.660;2024-01-07T06:41:34;3.50;;;2.13;;
52494;SDS011;38405;53.212;5.660;2024-01-07T06:44:00;3.25;;;2.00;;
52494;SDS011;38405;53.212;5.660;2024-01-07T06:46:26;6.55;;;2.30;;
52494;SDS011;38405;53.212;5.660;2024-01-07T06:48:52;6.82;;;2.95;;
52494;SDS011;38405;53.212;5.660;2024-01-07T06:51:17;4.50;;;2.88;;
52494;SDS011;38405;53.212;5.660;2024-01-07T06:53:43;7.15;;;3.20;;
52494;SDS011;38405;53.212;5.660;2024-01-07T06:56:09;4.00;;;2.10;;
52494;SDS011;38405;53.212;5.660;2024-01-07T06:58:34;2.30;;;2.10;;
52494;SDS011;38405;53.212;5.660;2024-01-07T07:01:00;3.65;;;2.22;;
52494;SDS011;38405;53.212;5.660;2024-01-07T07:03:25;4.85;;;2.05;;
52494;SDS011;38405;53.212;5.660;2024-01-07T07:05:51;3.22;;;2.15;;
52494;SDS011;38405;53.212;5.660;2024-01-07T07:08:17;4.28;;;2.53;;
52494;SDS011;38405;53.212;5.660;2024-01-07T07:10:42;3.92;;;2.72;;
52494;SDS011;38405;53.212;5.660;2024-01-07T07:13:08;3.72;;;2.40;;
52494;SDS011;38405;53.212;5.660;2024-01-07T07:15:34;2.28;;;1.90;;
52494;SDS011;38405;53.212;5.660;2024-01-07T07:17:59;2.75;;;2.25;;
52494;SDS011;38405;53.212;5.660;2024-01-07T07:20:25;2.78;;;2.00;;
52494;SDS011;38405;53.212;5.660;2024-01-07T07:22:50;3.78;;;2.38;;
52494;SDS011;38405;53.212;5.660;2024-01-07T07:25:16;5.50;;;2.00;;
52494;SDS011;38405;53.212;5.660;2024-01-07T07:27:42;3.80;;;2.28;;
52494;SDS011;38405;53.212;5.660;2024-01-07T07:30:07;4.38;;;2.30;;
52494;SDS011;38405;53.212;5.660;2024-01-07T07:32:33;6.18;;;2.50;;
52494;SDS011;38405;53.212;5.660;2024-01-07T07:34:59;6.82;;;2.53;;
52494;SDS011;38405;53.212;5.660;2024-01-07T07:37:25;3.35;;;2.00;;
52494;SDS011;38405;53.212;5.660;2024-01-07T07:39:50;3.53;;;2.35;;
52494;SDS011;38405;53.212;5.660;2024-01-07T07:42:16;3.70;;;2.63;;
52494;SDS011;38405;53.212;5.660;2024-01-07T07:44:41;2.45;;;1.92;;
52494;SDS011;38405;53.212;5.660;2024-01-07T07:47:08;4.88;;;2.20;;
52494;SDS011;38405;53.212;5.660;2024-01-07T07:49:36;7.50;;;2.55;;
52494;SDS011;38405;53.212;5.660;2024-01-07T07:52:05;5.28;;;2.58;;
52494;SDS011;38405;53.212;5.660;2024-01-07T07:54:39;2.17;;;1.98;;
52494;SDS011;38405;53.212;5.660;2024-01-07T07:57:04;2.88;;;2.38;;
52494;SDS011;38405;53.212;5.660;2024-01-07T07:59:30;4.38;;;3.20;;
52494;SDS011;38405;53.212;5.660;2024-01-07T08:01:56;13.88;;;6.68;;
52494;SDS011;38405;53.212;5.660;2024-01-07T08:04:21;6.07;;;4.00;;
52494;SDS011;38405;53.212;5.660;2024-01-07T08:06:47;5.25;;;3.25;;
52494;SDS011;38405;53.212;5.660;2024-01-07T08:09:13;3.00;;;2.63;;
52494;SDS011;38405;53.212;5.660;2024-01-07T08:11:38;3.17;;;2.33;;
52494;SDS011;38405;53.212;5.660;2024-01-07T08:14:04;2.75;;;2.47;;
52494;SDS011;38405;53.212;5.660;2024-01-07T08:16:31;6.63;;;2.78;;
52494;SDS011;38405;53.212;5.660;2024-01-07T08:18:56;3.15;;;2.58;;
52494;SDS011;38405;53.212;5.660;2024-01-07T08:21:22;2.38;;;2.08;;
52494;SDS011;38405;53.212;5.660;2024-01-07T08:23:48;4.78;;;2.92;;
52494;SDS011;38405;53.212;5.660;2024-01-07T08:26:20;7.22;;;3.20;;
52494;SDS011;38405;53.212;5.660;2024-01-07T08:28:45;8.48;;;3.17;;
52494;SDS011;38405;53.212;5.660;2024-01-07T08:31:11;2.70;;;2.33;;
52494;SDS011;38405;53.212;5.660;2024-01-07T08:33:37;3.50;;;2.83;;
52494;SDS011;38405;53.212;5.660;2024-01-07T08:36:02;4.78;;;2.90;;
52494;SDS011;38405;53.212;5.660;2024-01-07T08:38:29;4.03;;;2.97;;
52494;SDS011;38405;53.212;5.660;2024-01-07T08:40:55;5.30;;;2.80;;
52494;SDS011;38405;53.212;5.660;2024-01-07T08:43:20;7.72;;;4.43;;
52494;SDS011;38405;53.212;5.660;2024-01-07T08:45:46;8.15;;;3.58;;
52494;SDS011;38405;53.212;5.660;2024-01-07T08:48:12;5.13;;;3.42;;
52494;SDS011;38405;53.212;5.660;2024-01-07T08:50:38;8.07;;;3.40;;
52494;SDS011;38405;53.212;5.660;2024-01-07T08:53:04;5.70;;;2.85;;
52494;SDS011;38405;53.212;5.660;2024-01-07T08:55:30;5.70;;;2.88;;
52494;SDS011;38405;53.212;5.660;2024-01-07T08:57:56;4.32;;;2.92;;
52494;SDS011;38405;53.212;5.660;2024-01-07T09:00:21;8.23;;;3.15;;
52494;SDS011;38405;53.212;5.660;2024-01-07T09:02:51;4.07;;;3.03;;
52494;SDS011;38405;53.212;5.660;2024-01-07T09:05:17;3.83;;;2.85;;
52494;SDS011;38405;53.212;5.660;2024-01-07T09:07:43;4.50;;;3.30;;
52494;SDS011;38405;53.212;5.660;2024-01-07T09:10:09;7.10;;;3.13;;
52494;SDS011;38405;53.212;5.660;2024-01-07T09:12:36;4.82;;;3.10;;
52494;SDS011;38405;53.212;5.660;2024-01-07T09:15:03;8.27;;;3.25;;
52494;SDS011;38405;53.212;5.660;2024-01-07T09:17:33;5.80;;;3.60;;
52494;SDS011;38405;53.212;5.660;2024-01-07T09:20:03;3.72;;;3.10;;
52494;SDS011;38405;53.212;5.660;2024-01-07T09:22:32;6.03;;;4.68;;
52494;SDS011;38405;53.212;5.660;2024-01-07T09:24:58;5.13;;;3.08;;
52494;SDS011;38405;53.212;5.660;2024-01-07T09:27:28;4.35;;;3.03;;
52494;SDS011;38405;53.212;5.660;2024-01-07T09:29:54;4.28;;;3.60;;
52494;SDS011;38405;53.212;5.660;2024-01-07T09:32:19;7.13;;;3.60;;
52494;SDS011;38405;53.212;5.660;2024-01-07T09:34:45;5.78;;;3.85;;
52494;SDS011;38405;53.212;5.660;2024-01-07T09:37:11;6.32;;;3.40;;
52494;SDS011;38405;53.212;5.660;2024-01-07T09:39:40;5.40;;;3.80;;
52494;SDS011;38405;53.212;5.660;2024-01-07T09:42:18;5.05;;;3.58;;
52494;SDS011;38405;53.212;5.660;2024-01-07T09:44:44;3.70;;;2.80;;
52494;SDS011;38405;53.212;5.660;2024-01-07T09:47:11;2.80;;;2.60;;
52494;SDS011;38405;53.212;5.660;2024-01-07T09:49:40;4.70;;;3.58;;
52494;SDS011;38405;53.212;5.660;2024-01-07T09:52:07;5.28;;;3.65;;
52494;SDS011;38405;53.212;5.660;2024-01-07T09:54:38;4.15;;;3.45;;
52494;SDS011;38405;53.212;5.660;2024-01-07T09:57:05;4.13;;;2.83;;
52494;SDS011;38405;53.212;5.660;2024-01-07T09:59:32;3.50;;;2.78;;
52494;SDS011;38405;53.212;5.660;2024-01-07T10:01:58;4.43;;;2.60;;
52494;SDS011;38405;53.212;5.660;2024-01-07T10:04:24;3.20;;;2.72;;
52494;SDS011;38405;53.212;5.660;2024-01-07T10:06:51;3.42;;;2.50;;
52494;SDS011;38405;53.212;5.660;2024-01-07T10:09:23;4.18;;;2.30;;
52494;SDS011;38405;53.212;5.660;2024-01-07T10:11:57;3.60;;;2.53;;
52494;SDS011;38405;53.212;5.660;2024-01-07T10:14:23;6.70;;;2.80;;
52494;SDS011;38405;53.212;5.660;2024-01-07T10:16:51;3.45;;;2.70;;
52494;SDS011;38405;53.212;5.660;2024-01-07T10:19:23;7.45;;;3.05;;
52494;SDS011;38405;53.212;5.660;2024-01-07T10:21:59;4.55;;;2.47;;
52494;SDS011;38405;53.212;5.660;2024-01-07T10:24:36;5.03;;;2.90;;
52494;SDS011;38405;53.212;5.660;2024-01-07T10:27:03;4.32;;;2.17;;
52494;SDS011;38405;53.212;5.660;2024-01-07T10:29:30;3.80;;;2.50;;
52494;SDS011;38405;53.212;5.660;2024-01-07T10:31:57;5.60;;;2.85;;
52494;SDS011;38405;53.212;5.660;2024-01-07T10:34:23;4.10;;;2.90;;
52494;SDS011;38405;53.212;5.660;2024-01-07T10:36:51;4.13;;;2.90;;
52494;SDS011;38405;53.212;5.660;2024-01-07T10:39:18;7.32;;;4.45;;
52494;SDS011;38405;53.212;5.660;2024-01-07T10:41:44;7.05;;;4.22;;
52494;SDS011;38405;53.212;5.660;2024-01-07T10:44:11;11.45;;;4.72;;
52494;SDS011;38405;53.212;5.660;2024-01-07T10:46:37;8.10;;;5.00;;
52494;SDS011;38405;53.212;5.660;2024-01-07T10:49:04;7.60;;;4.78;;
52494;SDS011;38405;53.212;5.660;2024-01-07T10:51:39;3.85;;;3.03;;
52494;SDS011;38405;53.212;5.660;2024-01-07T10:54:08;6.55;;;3.10;;
52494;SDS011;38405;53.212;5.660;2024-01-07T10:56:38;3.63;;;2.95;;
52494;SDS011;38405;53.212;5.660;2024-01-07T10:59:10;3.78;;;2.60;;
52494;SDS011;38405;53.212;5.660;2024-01-07T11:01:35;4.90;;;2.97;;
52494;SDS011;38405;53.212;5.660;2024-01-07T11:09:33;3.60;;;2.58;;
52494;SDS011;38405;53.212;5.660;2024-01-07T11:14:40;4.35;;;3.05;;
52494;SDS011;38405;53.212;5.660;2024-01-07T11:17:10;5.65;;;4.07;;
52494;SDS011;38405;53.212;5.660;2024-01-07T11:19:37;5.88;;;3.40;;
52494;SDS011;38405;53.212;5.660;2024-01-07T11:24:55;4.65;;;3.85;;
52494;SDS011;38405;53.212;5.660;2024-01-07T11:27:23;8.48;;;3.47;;
52494;SDS011;38405;53.212;5.660;2024-01-07T11:29:56;6.55;;;3.38;;
52494;SDS011;38405;53.212;5.660;2024-01-07T11:32:23;3.55;;;3.22;;
52494;SDS011;38405;53.212;5.660;2024-01-07T11:34:53;6.50;;;3.25;;
52494;SDS011;38405;53.212;5.660;2024-01-07T11:37:21;7.13;;;3.35;;
52494;SDS011;38405;53.212;5.660;2024-01-07T11:39:48;7.65;;;3.28;;
52494;SDS011;38405;53.212;5.660;2024-01-07T11:42:16;7.05;;;2.95;;
52494;SDS011;38405;53.212;5.660;2024-01-07T11:44:46;4.75;;;3.10;;
52494;SDS011;38405;53.212;5.660;2024-01-07T11:47:14;4.10;;;2.95;;
52494;SDS011;38405;53.212;5.660;2024-01-07T11:49:40;5.78;;;3.22;;
52494;SDS011;38405;53.212;5.660;2024-01-07T11:52:06;4.85;;;3.33;;
52494;SDS011;38405;53.212;5.660;2024-01-07T11:54:31;4.13;;;3.00;;
52494;SDS011;38405;53.212;5.660;2024-01-07T11:56:57;4.32;;;2.80;;
52494;SDS011;38405;53.212;5.660;2024-01-07T11:59:23;9.13;;;3.30;;
52494;SDS011;38405;53.212;5.660;2024-01-07T12:01:49;4.85;;;2.63;;
52494;SDS011;38405;53.212;5.660;2024-01-07T12:04:14;5.60;;;3.33;;
52494;SDS011;38405;53.212;5.660;2024-01-07T12:06:40;5.85;;;2.92;;
52494;SDS011;38405;53.212;5.660;2024-01-07T12:09:05;2.92;;;2.63;;
52494;SDS011;38405;53.212;5.660;2024-01-07T12:11:32;6.55;;;2.97;;
52494;SDS011;38405;53.212;5.660;2024-01-07T12:13:58;6.43;;;2.88;;
52494;SDS011;38405;53.212;5.660;2024-01-07T12:16:25;5.93;;;3.40;;
52494;SDS011;38405;53.212;5.660;2024-01-07T12:18:51;9.00;;;3.70;;
52494;SDS011;38405;53.212;5.660;2024-01-07T12:21:19;4.93;;;3.20;;
52494;SDS011;38405;53.212;5.660;2024-01-07T12:23:49;7.13;;;3.70;;
52494;SDS011;38405;53.212;5.660;2024-01-07T12:26:15;5.43;;;3.08;;
52494;SDS011;38405;53.212;5.660;2024-01-07T12:28:42;6.93;;;3.35;;
52494;SDS011;38405;53.212;5.660;2024-01-07T12:31:09;5.53;;;2.78;;
52494;SDS011;38405;53.212;5.660;2024-01-07T12:33:41;4.97;;;2.95;;
52494;SDS011;38405;53.212;5.660;2024-01-07T12:36:07;4.78;;;3.28;;
52494;SDS011;38405;53.212;5.660;2024-01-07T12:38:33;7.18;;;3.25;;
52494;SDS011;38405;53.212;5.660;2024-01-07T12:41:02;7.68;;;2.90;;
52494;SDS011;38405;53.212;5.660;2024-01-07T12:43:28;5.60;;;2.90;;
52494;SDS011;38405;53.212;5.660;2024-01-07T12:45:53;7.97;;;3.10;;
52494;SDS011;38405;53.212;5.660;2024-01-07T12:48:20;6.57;;;3.22;;
52494;SDS011;38405;53.212;5.660;2024-01-07T12:50:46;6.97;;;3.80;;
52494;SDS011;38405;53.212;5.660;2024-01-07T12:53:11;6.38;;;3.42;;
52494;SDS011;38405;53.212;5.660;2024-01-07T12:55:37;8.95;;;3.75;;
52494;SDS011;38405;53.212;5.660;2024-01-07T12:58:03;6.03;;;3.13;;
52494;SDS011;38405;53.212;5.660;2024-01-07T13:00:28;6.43;;;3.47;;
52494;SDS011;38405;53.212;5.660;2024-01-07T13:02:54;6.80;;;3.92;;
52494;SDS011;38405;53.212;5.660;2024-01-07T13:05:20;7.18;;;4.30;;
52494;SDS011;38405;53.212;5.660;2024-01-07T13:07:46;5.97;;;3.20;;
52494;SDS011;38405;53.212;5.660;2024-01-07T13:10:12;5.72;;;3.95;;
52494;SDS011;38405;53.212;5.660;2024-01-07T13:12:38;6.85;;;3.90;;
52494;SDS011;38405;53.212;5.660;2024-01-07T13:15:04;9.80;;;3.92;;
52494;SDS011;38405;53.212;5.660;2024-01-07T13:17:30;6.30;;;4.38;;
52494;SDS011;38405;53.212;5.660;2024-01-07T13:19:58;4.88;;;3.30;;
52494;SDS011;38405;53.212;5.660;2024-01-07T13:22:24;4.93;;;3.33;;
52494;SDS011;38405;53.212;5.660;2024-01-07T13:24:50;9.25;;;4.18;;
52494;SDS011;38405;53.212;5.660;2024-01-07T13:27:15;3.75;;;3.03;;
52494;SDS011;38405;53.212;5.660;2024-01-07T13:29:43;6.07;;;3.35;;
52494;SDS011;38405;53.212;5.660;2024-01-07T13:32:12;3.33;;;2.72;;
52494;SDS011;38405;53.212;5.660;2024-01-07T13:34:42;5.55;;;3.33;;
52494;SDS011;38405;53.212;5.660;2024-01-07T13:37:08;5.10;;;2.83;;
52494;SDS011;38405;53.212;5.660;2024-01-07T13:39:33;3.15;;;2.22;;
52494;SDS011;38405;53.212;5.660;2024-01-07T13:41:59;4.47;;;2.60;;
52494;SDS011;38405;53.212;5.660;2024-01-07T13:44:25;3.78;;;2.83;;
52494;SDS011;38405;53.212;5.660;2024-01-07T13:46:51;4.70;;;2.50;;
52494;SDS011;38405;53.212;5.660;2024-01-07T13:49:17;4.07;;;2.83;;
52494;SDS011;38405;53.212;5.660;2024-01-07T13:51:42;5.30;;;3.00;;
52494;SDS011;38405;53.212;5.660;2024-01-07T13:54:09;6.07;;;3.17;;
52494;SDS011;38405;53.212;5.660;2024-01-07T13:56:40;9.32;;;3.25;;
52494;SDS011;38405;53.212;5.660;2024-01-07T13:59:08;4.13;;;3.30;;
52494;SDS011;38405;53.212;5.660;2024-01-07T14:01:34;4.43;;;3.17;;
52494;SDS011;38405;53.212;5.660;2024-01-07T14:03:59;6.55;;;2.83;;
52494;SDS011;38405;53.212;5.660;2024-01-07T14:06:26;7.10;;;3.05;;
52494;SDS011;38405;53.212;5.660;2024-01-07T14:08:52;7.25;;;2.85;;
52494;SDS011;38405;53.212;5.660;2024-01-07T14:11:18;4.93;;;3.85;;
52494;SDS011;38405;53.212;5.660;2024-01-07T14:13:45;11.00;;;4.65;;
52494;SDS011;38405;53.212;5.660;2024-01-07T14:16:11;6.60;;;4.28;;
52494;SDS011;38405;53.212;5.660;2024-01-07T14:18:40;12.18;;;6.20;;
52494;SDS011;38405;53.212;5.660;2024-01-07T14:21:06;9.05;;;4.70;;
52494;SDS011;38405;53.212;5.660;2024-01-07T14:23:32;6.45;;;3.40;;
52494;SDS011;38405;53.212;5.660;2024-01-07T14:25:59;9.93;;;3.60;;
52494;SDS011;38405;53.212;5.660;2024-01-07T14:28:25;5.38;;;3.75;;
52494;SDS011;38405;53.212;5.660;2024-01-07T14:30:51;7.80;;;3.70;;
52494;SDS011;38405;53.212;5.660;2024-01-07T14:33:16;5.53;;;2.97;;
52494;SDS011;38405;53.212;5.660;2024-01-07T14:35:42;6.70;;;3.45;;
52494;SDS011;38405;53.212;5.660;2024-01-07T14:38:07;5.70;;;3.05;;
52494;SDS011;38405;53.212;5.660;2024-01-07T14:40:33;5.38;;;3.30;;
52494;SDS011;38405;53.212;5.660;2024-01-07T14:42:59;7.00;;;3.40;;
52494;SDS011;38405;53.212;5.660;2024-01-07T14:45:26;9.98;;;3.70;;
52494;SDS011;38405;53.212;5.660;2024-01-07T14:47:52;5.82;;;3.38;;
52494;SDS011;38405;53.212;5.660;2024-01-07T14:50:18;8.20;;;3.67;;